Time,TemperatureF,DewpointF,PressureIn,WindDirection,WindDirectionDegrees,WindSpeedMPH,WindSpeedGustMPH,Humidity,HourlyPrecipIn,Conditions,Clouds,dailyrainin,SoftwareType,DateUTC
2013-07-07 00:10:00,69.4,62.6,30.06,ESE,115,0.0,0.0,79,0.00,,,0.00,WeatherDisplay:10.37,2013-07-07 04:10:00,
2013-07-07 00:20:00,69.4,62.6,30.06,ESE,121,0.0,0.0,79,0.00,,,0.00,WeatherDisplay:10.37,2013-07-07 04:20:00,
2013-07-07 00:30:00,69.3,62.5,30.06,ESE,123,0.0,0.0,79,0.00,,,0.00,WeatherDisplay:10.37,2013-07-07 04:30:00,
2013-07-07 00:40:00,69.3,62.5,30.06,SE,136,0.0,0.0,79,0.00,,,0.00,WeatherDisplay:10.37,2013-07-07 04:40:00,
2013-07-07 00:50:00,69.3,62.5,30.06,SE,126,0.0,0.0,79,0.00,,,0.00,WeatherDisplay:10.37,2013-07-07 04:50:00,
2013-07-07 00:59:00,69.3,62.5,30.06,SE,127,0.0,0.0,79,0.00,,,0.00,WeatherDisplay:10.37,2013-07-07 04:59:00,
2013-07-07 01:10:00,69.3,62.5,30.05,SSE,157,0.0,0.0,79,0.00,,,0.00,WeatherDisplay:10.37,2013-07-07 05:10:00,
2013-07-07 01:20:00,68.7,62.3,30.05,SE,132,0.0,0.0,80,0.00,,,0.00,WeatherDisplay:10.37,2013-07-07 05:20:00,
2013-07-07 01:30:00,68.5,62.1,30.06,SSE,148,0.0,0.0,80,0.00,,,0.00,WeatherDisplay:10.37,2013-07-07 05:30:00,
2013-07-07 01:40:00,68.4,61.9,30.05,SSE,153,0.0,0.0,80,0.00,,,0.00,WeatherDisplay:10.37,2013-07-07 05:40:00,
2013-07-07 01:50:00,68.5,62.1,30.05,South,180,0.0,0.0,80,0.00,,,0.00,WeatherDisplay:10.37,2013-07-07 05:50:00,
2013-07-07 02:00:00,68.2,61.8,30.05,SSE,154,0.0,0.0,80,0.00,,,0.00,WeatherDisplay:10.37,2013-07-07 06:00:00,
2013-07-07 02:10:00,68.0,61.6,30.05,SSE,155,0.0,0.0,80,0.00,,,0.00,WeatherDisplay:10.37,2013-07-07 06:10:00,
2013-07-07 02:20:00,67.7,61.3,30.05,ESE,116,0.0,0.0,80,0.00,,,0.00,WeatherDisplay:10.37,2013-07-07 06:20:00,
2013-07-07 02:30:00,67.6,61.2,30.04,ENE,60,0.0,0.0,80,0.00,,,0.00,WeatherDisplay:10.37,2013-07-07 06:30:00,
2013-07-07 02:40:00,67.6,61.2,30.04,ENE,70,0.0,0.0,80,0.00,,,0.00,WeatherDisplay:10.37,2013-07-07 06:40:00,
2013-07-07 02:50:00,67.6,61.2,30.04,East,82,0.0,0.0,80,0.00,,,0.00,WeatherDisplay:10.37,2013-07-07 06:50:00,
2013-07-07 03:00:00,67.5,61.1,30.04,East,82,0.0,0.0,80,0.00,,,0.00,WeatherDisplay:10.37,2013-07-07 07:00:00,
2013-07-07 03:10:00,67.5,61.4,30.04,East,82,0.0,0.0,81,0.00,,,0.00,WeatherDisplay:10.37,2013-07-07 07:10:00,
2013-07-07 03:20:00,67.3,61.3,30.04,East,82,0.0,0.0,81,0.00,,,0.00,WeatherDisplay:10.37,2013-07-07 07:20:00,
2013-07-07 03:30:00,67.1,61.1,30.03,East,82,0.0,0.0,81,0.00,,,0.00,WeatherDisplay:10.37,2013-07-07 07:30:00,
2013-07-07 03:40:00,67.1,61.1,30.04,ESE,102,0.0,0.0,81,0.00,,,0.00,WeatherDisplay:10.37,2013-07-07 07:40:00,
2013-07-07 03:50:00,67.0,61.3,30.03,SE,128,0.0,0.0,82,0.00,,,0.00,WeatherDisplay:10.37,2013-07-07 07:50:00,
2013-07-07 04:00:00,66.9,60.9,30.03,SE,128,0.0,0.0,81,0.00,,,0.00,WeatherDisplay:10.37,2013-07-07 08:00:00,
2013-07-07 04:10:00,66.8,61.1,30.03,SE,128,0.0,0.0,82,0.00,,,0.00,WeatherDisplay:10.37,2013-07-07 08:10:00,
2013-07-07 04:20:00,66.6,60.9,30.03,SE,128,0.0,0.0,82,0.00,,,0.00,WeatherDisplay:10.37,2013-07-07 08:20:00,
2013-07-07 04:30:00,66.6,60.9,30.03,SE,128,0.0,0.0,82,0.00,,,0.00,WeatherDisplay:10.37,2013-07-07 08:30:00,
2013-07-07 04:40:00,66.4,60.7,30.03,SE,128,0.0,0.0,82,0.00,,,0.00,WeatherDisplay:10.37,2013-07-07 08:40:00,
2013-07-07 04:50:00,66.4,60.7,30.03,SE,128,0.0,0.0,82,0.00,,,0.00,WeatherDisplay:10.37,2013-07-07 08:50:00,
2013-07-07 05:00:00,66.2,60.5,30.03,SE,128,0.0,0.0,82,0.00,,,0.00,WeatherDisplay:10.37,2013-07-07 09:00:00,
2013-07-07 05:10:00,66.2,60.9,30.03,SE,128,0.0,0.0,83,0.00,,,0.00,WeatherDisplay:10.37,2013-07-07 09:10:00,
2013-07-07 05:20:00,66.2,60.9,30.03,SE,128,0.0,0.0,83,0.00,,,0.00,WeatherDisplay:10.37,2013-07-07 09:20:00,
2013-07-07 05:30:00,66.2,60.9,30.03,SE,131,0.0,0.0,83,0.00,,,0.00,WeatherDisplay:10.37,2013-07-07 09:30:00,
2013-07-07 05:40:00,66.1,60.8,30.03,SE,142,0.0,0.0,83,0.00,,,0.00,WeatherDisplay:10.37,2013-07-07 09:40:00,
2013-07-07 05:50:00,66.2,60.6,30.03,SE,128,0.0,0.0,82,0.00,,,0.00,WeatherDisplay:10.37,2013-07-07 09:50:00,
2013-07-07 06:00:00,66.6,60.9,30.04,SE,144,0.0,0.0,82,0.00,,,0.00,WeatherDisplay:10.37,2013-07-07 10:00:00,
2013-07-07 06:10:00,66.7,61.1,30.04,East,100,0.0,0.0,82,0.00,,,0.00,WeatherDisplay:10.37,2013-07-07 10:10:00,
2013-07-07 06:20:00,66.9,61.2,30.04,SE,130,0.0,0.0,82,0.00,,,0.00,WeatherDisplay:10.37,2013-07-07 10:20:00,
2013-07-07 06:30:00,67.1,61.4,30.04,ESE,121,0.0,0.0,82,0.00,,,0.00,WeatherDisplay:10.37,2013-07-07 10:30:00,
2013-07-07 06:40:00,67.5,61.8,30.04,SE,124,0.0,0.0,82,0.00,,,0.00,WeatherDisplay:10.37,2013-07-07 10:40:00,
2013-07-07 06:50:00,67.6,61.6,30.04,ESE,117,0.0,0.0,81,0.00,,,0.00,WeatherDisplay:10.37,2013-07-07 10:50:00,
2013-07-07 07:00:00,67.6,61.9,30.04,ESE,105,0.0,0.0,82,0.00,,,0.00,WeatherDisplay:10.37,2013-07-07 11:00:00,
2013-07-07 07:10:00,68.1,62.4,30.04,ESE,105,0.0,0.0,82,0.00,,,0.00,WeatherDisplay:10.37,2013-07-07 11:10:00,
2013-07-07 07:20:00,69.7,63.6,30.04,SSE,150,0.0,0.0,81,0.00,,,0.00,WeatherDisplay:10.37,2013-07-07 11:20:00,
2013-07-07 07:30:00,72.2,65.3,30.04,SSE,150,0.0,0.0,79,0.00,,,0.00,WeatherDisplay:10.37,2013-07-07 11:30:00,
2013-07-07 07:40:00,73.4,65.8,30.04,SSE,166,0.0,0.0,77,0.00,,,0.00,WeatherDisplay:10.37,2013-07-07 11:40:00,
2013-07-07 07:50:00,75.2,66.7,30.04,ESE,109,0.0,0.0,75,0.00,,,0.00,WeatherDisplay:10.37,2013-07-07 11:50:00,
2013-07-07 08:00:00,75.6,66.3,30.04,East,89,0.0,0.0,73,0.00,,,0.00,WeatherDisplay:10.37,2013-07-07 12:00:00,
2013-07-07 08:10:00,75.4,65.7,30.04,ESE,114,0.0,0.0,72,0.00,,,0.00,WeatherDisplay:10.37,2013-07-07 12:10:00,
2013-07-07 08:20:00,75.0,65.0,30.04,SE,137,0.0,0.0,71,0.00,,,0.00,WeatherDisplay:10.37,2013-07-07 12:20:00,
2013-07-07 08:30:00,74.8,64.8,30.05,ESE,115,0.0,0.0,71,0.00,,,0.00,WeatherDisplay:10.37,2013-07-07 12:30:00,
2013-07-07 08:40:00,75.4,65.3,30.05,SE,140,0.0,0.0,71,0.00,,,0.00,WeatherDisplay:10.37,2013-07-07 12:40:00,
2013-07-07 08:50:00,75.9,65.0,30.04,SE,145,1.0,0.0,69,0.00,,,0.00,WeatherDisplay:10.37,2013-07-07 12:50:00,
2013-07-07 09:00:00,76.6,65.7,30.04,SE,141,1.0,0.0,69,0.00,,,0.00,WeatherDisplay:10.37,2013-07-07 13:00:00,
2013-07-07 09:10:00,77.2,65.4,30.04,SSE,161,0.0,0.0,67,0.00,,,0.00,WeatherDisplay:10.37,2013-07-07 13:10:00,
2013-07-07 09:20:00,77.5,65.6,30.05,South,178,0.0,0.0,67,0.00,,,0.00,WeatherDisplay:10.37,2013-07-07 13:20:00,
2013-07-07 09:30:00,77.9,66.5,30.05,SSE,168,0.0,0.0,68,0.00,,,0.00,WeatherDisplay:10.37,2013-07-07 13:30:00,
2013-07-07 09:40:00,78.0,66.6,30.05,South,180,0.0,0.0,68,0.00,,,0.00,WeatherDisplay:10.37,2013-07-07 13:40:00,
2013-07-07 09:50:00,78.3,66.5,30.05,SSW,193,0.0,0.0,67,0.00,,,0.00,WeatherDisplay:10.37,2013-07-07 13:50:00,
2013-07-07 10:00:00,78.3,67.3,30.04,SSW,195,0.0,0.0,69,0.00,,,0.00,WeatherDisplay:10.37,2013-07-07 14:00:00,
2013-07-07 10:10:00,78.3,67.7,30.04,SSW,195,0.0,0.0,70,0.00,,,0.00,WeatherDisplay:10.37,2013-07-07 14:10:00,
2013-07-07 10:20:00,78.2,68.1,30.04,SSW,195,0.0,0.0,71,0.00,,,0.00,WeatherDisplay:10.37,2013-07-07 14:20:00,
2013-07-07 10:30:00,78.0,68.2,30.04,South,172,0.0,0.0,72,0.00,,,0.00,WeatherDisplay:10.37,2013-07-07 14:30:00,
2013-07-07 10:40:00,77.9,68.1,30.05,SE,128,0.0,0.0,72,0.00,,,0.00,WeatherDisplay:10.37,2013-07-07 14:40:00,
2013-07-07 10:50:00,77.9,68.1,30.05,SE,140,0.0,0.0,72,0.00,,,0.00,WeatherDisplay:10.37,2013-07-07 14:50:00,
2013-07-07 11:00:00,77.5,67.8,30.05,East,98,0.0,0.0,72,0.00,,,0.00,WeatherDisplay:10.37,2013-07-07 15:00:00,
2013-07-07 11:10:00,77.4,67.6,30.04,SSE,149,0.0,0.0,72,0.00,,,0.00,WeatherDisplay:10.37,2013-07-07 15:10:00,
2013-07-07 11:20:00,77.5,68.2,30.05,SE,139,0.0,0.0,73,0.00,,,0.00,WeatherDisplay:10.37,2013-07-07 15:20:00,
2013-07-07 11:30:00,78.3,68.5,30.05,SE,138,0.0,0.0,72,0.00,,,0.00,WeatherDisplay:10.37,2013-07-07 15:30:00,
2013-07-07 11:40:00,78.5,67.5,30.04,South,174,1.0,0.0,69,0.00,,,0.00,WeatherDisplay:10.37,2013-07-07 15:40:00,
2013-07-07 11:50:00,78.9,67.9,30.05,SSE,153,0.0,0.0,69,0.00,,,0.00,WeatherDisplay:10.37,2013-07-07 15:50:00,
2013-07-07 12:00:00,79.3,68.3,30.04,East,95,0.0,0.0,69,0.00,,,0.00,WeatherDisplay:10.37,2013-07-07 16:00:00,
2013-07-07 12:10:00,79.7,67.3,30.04,SSE,150,0.0,0.0,66,0.00,,,0.00,WeatherDisplay:10.37,2013-07-07 16:10:00,
2013-07-07 12:20:00,80.1,67.7,30.04,SE,129,0.0,0.0,66,0.00,,,0.00,WeatherDisplay:10.37,2013-07-07 16:20:00,
2013-07-07 12:30:00,80.2,67.8,30.04,SE,144,0.0,0.0,66,0.00,,,0.00,WeatherDisplay:10.37,2013-07-07 16:30:00,
2013-07-07 12:40:00,80.6,66.8,30.04,South,183,0.0,0.0,63,0.00,,,0.00,WeatherDisplay:10.37,2013-07-07 16:40:00,
2013-07-07 12:50:00,80.6,66.8,30.04,South,177,0.0,0.0,63,0.00,,,0.00,WeatherDisplay:10.37,2013-07-07 16:50:00,
2013-07-07 13:00:00,80.8,66.5,30.03,SSE,154,0.0,0.0,62,0.00,,,0.00,WeatherDisplay:10.37,2013-07-07 17:00:00,
2013-07-07 13:10:00,81.1,68.3,30.03,ESE,116,1.0,0.0,65,0.00,,,0.00,WeatherDisplay:10.37,2013-07-07 17:10:00,
2013-07-07 13:20:00,81.5,68.1,30.03,SE,142,1.0,0.0,64,0.00,,,0.00,WeatherDisplay:10.37,2013-07-07 17:20:00,
2013-07-07 13:30:00,82.2,68.4,30.03,ESE,113,0.0,0.0,63,0.00,,,0.00,WeatherDisplay:10.37,2013-07-07 17:30:00,
2013-07-07 13:40:00,82.6,68.7,30.03,SE,132,0.0,0.0,63,0.00,,,0.00,WeatherDisplay:10.37,2013-07-07 17:40:00,
2013-07-07 13:50:00,83.1,68.7,30.02,SW,236,0.0,0.0,62,0.00,,,0.00,WeatherDisplay:10.37,2013-07-07 17:50:00,
2013-07-07 14:00:00,83.1,67.7,30.02,WNW,288,0.0,0.0,60,0.00,,,0.00,WeatherDisplay:10.37,2013-07-07 18:00:00,
2013-07-07 14:10:00,83.1,69.2,30.02,SE,139,0.0,0.0,63,0.00,,,0.00,WeatherDisplay:10.37,2013-07-07 18:10:00,
2013-07-07 14:20:00,83.1,68.3,30.01,SE,129,0.0,0.0,61,0.00,,,0.00,WeatherDisplay:10.37,2013-07-07 18:20:00,
2013-07-07 14:30:00,83.7,69.3,30.01,SSE,153,0.0,0.0,62,0.00,,,0.00,WeatherDisplay:10.37,2013-07-07 18:30:00,
2013-07-07 14:40:00,83.8,69.4,30.00,SE,130,0.0,0.0,62,0.00,,,0.00,WeatherDisplay:10.37,2013-07-07 18:40:00,
2013-07-07 14:50:00,84.0,69.1,30.00,SE,145,0.0,0.0,61,0.00,,,0.00,WeatherDisplay:10.37,2013-07-07 18:50:00,
2013-07-07 15:00:00,83.8,68.5,30.00,SE,133,0.0,0.0,60,0.00,,,0.00,WeatherDisplay:10.37,2013-07-07 19:00:00,
2013-07-07 15:10:00,83.9,70.0,29.99,ESE,123,0.0,0.0,63,0.00,,,0.00,WeatherDisplay:10.37,2013-07-07 19:10:00,
2013-07-07 15:20:00,84.2,71.2,29.99,SE,138,0.0,0.0,65,0.00,,,0.00,WeatherDisplay:10.37,2013-07-07 19:20:00,
2013-07-07 15:30:00,84.2,71.2,29.99,ESE,109,1.0,0.0,65,0.00,,,0.00,WeatherDisplay:10.37,2013-07-07 19:30:00,
2013-07-07 15:40:00,84.6,70.1,29.99,SSW,210,0.0,0.0,62,0.00,,,0.00,WeatherDisplay:10.37,2013-07-07 19:40:00,
2013-07-07 15:50:00,84.9,70.9,29.99,SSW,193,0.0,0.0,63,0.00,,,0.00,WeatherDisplay:10.37,2013-07-07 19:50:00,
2013-07-07 16:00:00,85.1,71.1,29.99,SE,130,0.0,0.0,63,0.00,,,0.00,WeatherDisplay:10.37,2013-07-07 20:00:00,
2013-07-07 16:10:00,85.4,70.9,29.99,ESE,105,1.0,0.0,62,0.00,,,0.00,WeatherDisplay:10.37,2013-07-07 20:10:00,
2013-07-07 16:20:00,85.5,71.9,29.99,ESE,106,0.0,0.0,64,0.00,,,0.00,WeatherDisplay:10.37,2013-07-07 20:20:00,
2013-07-07 16:30:00,85.6,72.1,29.97,ESE,115,1.0,0.0,64,0.00,,,0.00,WeatherDisplay:10.37,2013-07-07 20:30:00,
2013-07-07 16:40:00,85.8,72.7,29.97,SE,128,0.0,0.0,65,0.00,,,0.00,WeatherDisplay:10.37,2013-07-07 20:40:00,
2013-07-07 16:50:00,86.1,73.4,29.97,SE,126,1.0,0.0,66,0.00,,,0.00,WeatherDisplay:10.37,2013-07-07 20:50:00,
2013-07-07 17:00:00,86.3,73.6,29.97,ESE,122,0.0,0.0,66,0.00,,,0.00,WeatherDisplay:10.37,2013-07-07 21:00:00,
2013-07-07 17:10:00,86.2,73.5,29.97,SE,128,0.0,0.0,66,0.00,,,0.00,WeatherDisplay:10.37,2013-07-07 21:10:00,
2013-07-07 17:20:00,86.4,74.1,29.97,SE,128,0.0,0.0,67,0.00,,,0.00,WeatherDisplay:10.37,2013-07-07 21:20:00,
2013-07-07 17:30:00,85.5,73.7,29.96,SE,128,0.0,0.0,68,0.00,,,0.00,WeatherDisplay:10.37,2013-07-07 21:30:00,
2013-07-07 17:40:00,84.0,73.6,29.96,SSE,158,1.0,0.0,71,0.02,RA,RA,0.02,WeatherDisplay:10.37,2013-07-07 21:40:00,
2013-07-07 17:50:00,79.8,70.8,29.96,SW,222,0.0,0.0,74,0.00,,,0.02,WeatherDisplay:10.37,2013-07-07 21:50:00,
2013-07-07 18:00:00,79.3,71.5,29.96,ESE,114,0.0,0.0,77,0.00,,,0.02,WeatherDisplay:10.37,2013-07-07 22:00:00,
2013-07-07 18:10:00,78.8,71.4,29.96,South,189,0.0,0.0,78,0.00,,,0.02,WeatherDisplay:10.37,2013-07-07 22:10:00,
2013-07-07 18:20:00,78.3,71.6,29.97,SSW,195,0.0,0.0,80,0.00,,,0.02,WeatherDisplay:10.37,2013-07-07 22:20:00,
2013-07-07 18:30:00,77.9,71.6,29.96,SSW,195,0.0,0.0,81,0.00,,,0.02,WeatherDisplay:10.37,2013-07-07 22:30:00,
2013-07-07 18:40:00,77.4,71.1,29.96,SSW,195,0.0,0.0,81,0.00,,,0.02,WeatherDisplay:10.37,2013-07-07 22:40:00,
2013-07-07 18:50:00,77.0,70.7,29.95,SSW,195,0.0,0.0,81,0.00,,,0.02,WeatherDisplay:10.37,2013-07-07 22:50:00,
2013-07-07 19:00:00,77.4,72.1,29.95,SSW,195,0.0,0.0,84,0.00,,,0.02,WeatherDisplay:10.37,2013-07-07 23:00:00,
2013-07-07 19:10:00,77.8,72.9,29.95,SSW,195,0.0,0.0,85,0.00,,,0.02,WeatherDisplay:10.37,2013-07-07 23:10:00,
2013-07-07 19:20:00,77.9,73.0,29.95,SSW,199,0.0,0.0,85,0.00,,,0.02,WeatherDisplay:10.37,2013-07-07 23:20:00,
2013-07-07 19:30:00,77.4,72.5,29.96,SW,229,0.0,0.0,85,0.00,,,0.02,WeatherDisplay:10.37,2013-07-07 23:30:00,
2013-07-07 19:40:00,77.2,72.3,29.97,SW,235,0.0,0.0,85,0.00,,,0.02,WeatherDisplay:10.37,2013-07-07 23:40:00,
2013-07-07 19:50:00,76.6,71.4,29.97,WSW,249,0.0,0.0,84,0.00,,,0.02,WeatherDisplay:10.37,2013-07-07 23:50:00,
2013-07-07 20:00:00,76.1,70.9,29.97,South,187,0.0,0.0,84,0.00,,,0.02,WeatherDisplay:10.37,2013-07-08 00:00:00,
2013-07-07 20:10:00,75.9,70.7,29.97,South,172,0.0,0.0,84,0.00,,,0.02,WeatherDisplay:10.37,2013-07-08 00:10:00,
2013-07-07 20:20:00,75.7,70.6,29.97,SSE,160,0.0,0.0,84,0.00,,,0.02,WeatherDisplay:10.37,2013-07-08 00:20:00,
2013-07-07 20:30:00,75.6,70.4,29.97,SSE,150,0.0,0.0,84,0.00,,,0.02,WeatherDisplay:10.37,2013-07-08 00:30:00,
2013-07-07 20:40:00,75.3,69.8,29.97,SSE,150,0.0,0.0,83,0.00,,,0.02,WeatherDisplay:10.37,2013-07-08 00:40:00,
2013-07-07 20:50:00,74.8,69.7,29.97,SSE,150,0.0,0.0,84,0.00,,,0.02,WeatherDisplay:10.37,2013-07-08 00:50:00,
2013-07-07 21:00:00,74.8,69.3,29.96,SSE,150,0.0,0.0,83,0.00,,,0.02,WeatherDisplay:10.37,2013-07-08 01:00:00,
2013-07-07 21:10:00,74.4,68.9,29.97,SSE,150,0.0,0.0,83,0.00,,,0.02,WeatherDisplay:10.37,2013-07-08 01:10:00,
2013-07-07 21:20:00,74.1,68.6,29.99,SSE,150,0.0,0.0,83,0.00,,,0.02,WeatherDisplay:10.37,2013-07-08 01:20:00,
2013-07-07 21:30:00,73.9,68.8,29.99,SSE,150,0.0,0.0,84,0.00,,,0.02,WeatherDisplay:10.37,2013-07-08 01:30:00,
2013-07-07 21:40:00,73.9,68.8,29.99,SSE,150,0.0,0.0,84,0.00,,,0.02,WeatherDisplay:10.37,2013-07-08 01:40:00,
2013-07-07 21:50:00,73.8,68.6,29.99,SSE,150,0.0,0.0,84,0.00,,,0.02,WeatherDisplay:10.37,2013-07-08 01:50:00,
2013-07-07 22:00:00,73.4,68.3,29.99,SSE,150,0.0,0.0,84,0.00,,,0.02,WeatherDisplay:10.37,2013-07-08 02:00:00,
2013-07-07 22:10:00,73.1,68.0,29.99,SSE,150,0.0,0.0,84,0.00,,,0.02,WeatherDisplay:10.37,2013-07-08 02:10:00,
2013-07-07 22:20:00,73.0,67.9,29.99,SSE,150,0.0,0.0,84,0.00,,,0.02,WeatherDisplay:10.37,2013-07-08 02:20:00,
2013-07-07 22:30:00,72.9,67.7,29.99,SSE,150,0.0,0.0,84,0.00,,,0.02,WeatherDisplay:10.37,2013-07-08 02:30:00,
2013-07-07 22:40:00,72.9,67.7,29.99,SSE,150,0.0,0.0,84,0.00,,,0.02,WeatherDisplay:10.37,2013-07-08 02:40:00,
2013-07-07 22:50:00,72.5,67.4,29.99,SE,134,0.0,0.0,84,0.00,,,0.02,WeatherDisplay:10.37,2013-07-08 02:50:00,
2013-07-07 23:00:00,72.4,67.3,29.99,SSE,164,0.0,0.0,84,0.00,,,0.02,WeatherDisplay:10.37,2013-07-08 03:00:00,
2013-07-07 23:10:00,72.3,67.6,29.99,South,172,0.0,0.0,85,0.00,,,0.02,WeatherDisplay:10.37,2013-07-08 03:10:00,
2013-07-07 23:20:00,72.1,67.4,29.99,South,172,0.0,0.0,85,0.00,,,0.02,WeatherDisplay:10.37,2013-07-08 03:20:00,
2013-07-07 23:30:00,72.1,67.4,29.99,South,172,0.0,0.0,85,0.00,,,0.02,WeatherDisplay:10.37,2013-07-08 03:30:00,
2013-07-07 23:40:00,72.0,67.2,29.99,South,172,0.0,0.0,85,0.00,,,0.02,WeatherDisplay:10.37,2013-07-08 03:40:00,
2013-07-07 23:50:00,71.8,67.1,29.97,South,172,0.0,0.0,85,0.00,,,0.02,WeatherDisplay:10.37,2013-07-08 03:50:00,